Time;durP1;ratioP1;P1;durP2;ratioP2;P2;SDS_P1;SDS_P2;PMS_P1;PMS_P2;Temp;Humidity;BMP_temperature;BMP_pressure;BME280_temperature;BME280_humidity;BME280_pressure;Samples;Min_cycle;Max_cycle;Signal;HPM_P1;HPM_P2
2021/05/27 00:00:16;;;;;;;7.00;2.22;;;12.90;92.80;;;;;;4890761;29;20045;-63
2021/05/27 00:02:43;;;;;;;5.68;2.40;;;12.90;92.90;;;;;;4891582;29;20492;-62
2021/05/27 00:05:11;;;;;;;5.47;2.33;;;12.90;93.10;;;;;;4894889;29;20459;-62
2021/05/27 00:07:38;;;;;;;5.13;2.40;;;12.80;92.60;;;;;;4884743;29;20526;-62
2021/05/27 00:10:08;;;;;;;6.05;2.47;;;12.80;93.00;;;;;;4901291;29;20047;-62
2021/05/27 00:12:35;;;;;;;6.10;2.33;;;12.80;93.60;;;;;;4890696;29;20048;-63
2021/05/27 00:15:05;;;;;;;6.30;2.50;;;12.70;94.00;;;;;;4893900;29;20523;-63
2021/05/27 00:17:32;;;;;;;6.97;2.72;;;12.80;94.00;;;;;;4876080;29;20048;-63
2021/05/27 00:20:00;;;;;;;7.78;2.22;;;12.80;93.40;;;;;;4896059;29;20132;-62
2021/05/27 00:22:28;;;;;;;9.05;2.20;;;12.80;92.90;;;;;;4889042;29;20068;-62
2021/05/27 00:24:55;;;;;;;5.28;1.83;;;12.70;93.20;;;;;;4890191;29;20056;-63
2021/05/27 00:27:27;;;;;;;7.40;2.22;;;12.70;93.80;;;;;;4890711;29;20052;-63
2021/05/27 00:29:54;;;;;;;7.28;2.42;;;12.60;93.70;;;;;;4889445;29;20044;-62
2021/05/27 00:32:21;;;;;;;6.53;2.25;;;12.50;94.00;;;;;;4887140;29;20061;-63
2021/05/27 00:34:47;;;;;;;5.07;1.67;;;12.50;94.40;;;;;;4891539;29;20040;-62
2021/05/27 00:37:14;;;;;;;4.95;1.83;;;12.40;94.30;;;;;;4891221;29;20048;-62
2021/05/27 00:39:41;;;;;;;6.97;2.30;;;12.40;94.70;;;;;;4891267;29;20053;-63
2021/05/27 00:42:09;;;;;;;10.27;2.40;;;12.40;94.60;;;;;;4910234;29;20059;-62
2021/05/27 00:44:36;;;;;;;6.25;2.22;;;12.30;94.20;;;;;;4893380;29;20555;-63
2021/05/27 00:47:09;;;;;;;4.82;2.20;;;12.30;94.50;;;;;;4898384;29;20483;-63
2021/05/27 00:49:37;;;;;;;7.95;1.95;;;12.30;94.00;;;;;;4896660;29;20049;-62
2021/05/27 00:52:05;;;;;;;6.82;2.20;;;12.30;94.00;;;;;;4894664;29;20044;-62
2021/05/27 00:54:32;;;;;;;5.47;2.13;;;12.30;94.50;;;;;;4895215;29;20142;-63
2021/05/27 00:57:00;;;;;;;5.03;2.45;;;12.30;94.70;;;;;;4896966;29;20592;-63
2021/05/27 00:59:27;;;;;;;3.90;1.52;;;12.20;94.50;;;;;;4897332;29;20055;-63
2021/05/27 01:01:54;;;;;;;5.75;2.10;;;12.20;94.60;;;;;;4891241;29;20053;-63
2021/05/27 01:04:22;;;;;;;5.43;1.48;;;12.20;94.50;;;;;;4893719;29;20048;-63
2021/05/27 01:06:50;;;;;;;6.50;1.92;;;12.30;94.40;;;;;;4880959;29;20067;-63
2021/05/27 01:09:16;;;;;;;4.32;1.85;;;12.20;94.00;;;;;;4895263;29;20524;-62
2021/05/27 01:11:43;;;;;;;4.63;1.88;;;12.20;93.40;;;;;;4895052;29;20492;-62
2021/05/27 01:17:04;;;;;;;4.28;1.55;;;12.10;93.70;;;;;;4893068;29;20075;-62
2021/05/27 01:19:31;;;;;;;6.82;2.10;;;12.00;94.00;;;;;;4895005;29;20437;-63
2021/05/27 01:21:59;;;;;;;5.68;2.30;;;12.00;95.00;;;;;;4910023;29;20052;-62
2021/05/27 01:24:27;;;;;;;3.97;1.70;;;12.10;94.70;;;;;;4898974;29;20104;-62
2021/05/27 01:26:54;;;;;;;9.27;1.77;;;12.10;94.40;;;;;;4901078;29;20084;-62
2021/05/27 01:29:21;;;;;;;4.80;2.03;;;12.10;94.20;;;;;;4903329;29;20040;-62
2021/05/27 01:31:48;;;;;;;3.35;1.55;;;12.10;94.20;;;;;;4895818;29;20108;-62
2021/05/27 01:34:16;;;;;;;5.65;1.83;;;12.10;93.90;;;;;;4893821;29;20465;-62
2021/05/27 01:36:45;;;;;;;5.97;1.73;;;12.10;93.50;;;;;;4893079;29;20060;-62
2021/05/27 01:39:13;;;;;;;6.78;1.65;;;12.10;93.70;;;;;;4894011;29;20056;-62
2021/05/27 01:41:43;;;;;;;5.25;2.17;;;12.00;94.10;;;;;;4894244;29;20456;-62
2021/05/27 01:44:10;;;;;;;4.97;2.05;;;12.10;94.50;;;;;;4898810;29;20048;-62
2021/05/27 01:46:37;;;;;;;5.70;1.80;;;12.10;94.20;;;;;;4897158;29;20055;-63
2021/05/27 01:49:04;;;;;;;6.32;2.25;;;12.00;94.20;;;;;;4893791;29;20045;-63
2021/05/27 01:51:31;;;;;;;5.25;2.00;;;12.00;94.30;;;;;;4892441;29;20048;-63
2021/05/27 01:54:00;;;;;;;5.85;2.10;;;12.00;94.60;;;;;;4895090;29;20064;-62
2021/05/27 01:56:29;;;;;;;5.60;2.42;;;11.90;94.30;;;;;;4884995;29;20048;-63
2021/05/27 01:59:04;;;;;;;5.25;2.00;;;12.00;94.40;;;;;;4892611;29;20048;-63
2021/05/27 02:01:38;;;;;;;4.18;1.95;;;12.00;94.50;;;;;;4895252;29;20056;-62
2021/05/27 02:04:05;;;;;;;4.57;2.05;;;12.00;94.20;;;;;;4896136;29;20879;-62
2021/05/27 02:06:33;;;;;;;4.47;2.20;;;12.00;93.90;;;;;;4891735;29;20044;-62
2021/05/27 02:09:09;;;;;;;5.68;2.08;;;11.90;94.30;;;;;;4894614;29;20563;-62
2021/05/27 02:11:45;;;;;;;6.93;2.35;;;11.90;94.60;;;;;;4893831;29;20485;-62
2021/05/27 02:14:13;;;;;;;5.88;2.47;;;11.90;94.40;;;;;;4894164;29;20041;-63
2021/05/27 02:16:42;;;;;;;5.47;2.10;;;11.90;94.30;;;;;;4893960;29;20045;-62
2021/05/27 02:19:11;;;;;;;4.80;1.88;;;11.80;94.00;;;;;;4895321;29;20049;-62
2021/05/27 02:21:41;;;;;;;4.30;2.00;;;11.80;94.40;;;;;;4892309;29;20104;-62
2021/05/27 02:24:10;;;;;;;3.97;2.17;;;11.80;94.40;;;;;;4896614;29;20048;-62
2021/05/27 02:26:38;;;;;;;6.47;2.58;;;11.90;94.50;;;;;;4890969;29;20054;-63
2021/05/27 02:29:10;;;;;;;7.50;2.25;;;11.90;94.50;;;;;;4896623;29;20052;-62
2021/05/27 02:31:39;;;;;;;4.63;2.13;;;11.80;94.50;;;;;;4892396;29;20048;-62
2021/05/27 02:34:10;;;;;;;6.00;2.00;;;11.90;94.50;;;;;;4896329;29;20484;-62
2021/05/27 02:36:39;;;;;;;6.93;2.85;;;11.90;94.60;;;;;;4894258;29;20045;-63
2021/05/27 02:39:07;;;;;;;8.35;2.47;;;11.80;94.90;;;;;;4891402;29;20083;-62
2021/05/27 02:41:41;;;;;;;5.40;2.35;;;11.80;94.80;;;;;;4894376;29;20048;-63
2021/05/27 02:44:10;;;;;;;6.43;2.03;;;11.80;94.50;;;;;;4891125;29;20076;-62
2021/05/27 02:46:41;;;;;;;5.57;2.97;;;11.80;94.70;;;;;;4891302;29;20053;-62
2021/05/27 02:49:10;;;;;;;5.50;1.80;;;11.70;94.90;;;;;;4895692;29;20120;-63
2021/05/27 02:51:40;;;;;;;4.68;2.25;;;11.60;94.90;;;;;;4888054;29;20073;-63
2021/05/27 02:54:07;;;;;;;6.68;2.60;;;11.70;95.20;;;;;;4884651;29;20048;-62
2021/05/27 02:56:36;;;;;;;4.82;2.15;;;11.60;95.30;;;;;;4893637;29;20100;-62
2021/05/27 02:59:05;;;;;;;5.85;2.15;;;11.60;95.40;;;;;;4907292;29;20056;-62
2021/05/27 03:01:33;;;;;;;4.18;2.28;;;11.60;95.70;;;;;;4892717;29;20461;-62
2021/05/27 03:04:01;;;;;;;4.28;2.00;;;11.60;95.80;;;;;;4893135;29;20476;-62
2021/05/27 03:06:28;;;;;;;7.05;3.38;;;11.60;95.40;;;;;;4893588;29;20040;-62
2021/05/27 03:08:56;;;;;;;5.38;1.88;;;11.50;95.70;;;;;;4895982;29;20072;-62
2021/05/27 03:11:24;;;;;;;9.80;2.72;;;11.50;95.80;;;;;;4892944;29;20171;-63
2021/05/27 03:13:57;;;;;;;5.97;2.03;;;11.40;95.80;;;;;;4893398;29;20124;-62
2021/05/27 03:16:27;;;;;;;6.30;1.88;;;11.40;95.80;;;;;;4894700;29;20416;-62
2021/05/27 03:18:56;;;;;;;5.75;1.92;;;11.40;95.80;;;;;;4891419;29;20082;-62
2021/05/27 03:21:24;;;;;;;5.50;2.08;;;11.40;95.30;;;;;;4891985;29;20116;-62
2021/05/27 03:23:51;;;;;;;5.93;2.85;;;11.40;95.90;;;;;;4893047;29;20420;-63
2021/05/27 03:26:20;;;;;;;5.60;2.55;;;11.50;96.20;;;;;;4905353;29;20053;-62
2021/05/27 03:28:48;;;;;;;5.25;2.80;;;11.50;96.00;;;;;;4887695;29;20049;-62
2021/05/27 03:31:17;;;;;;;4.88;2.17;;;11.60;95.40;;;;;;4886971;29;20512;-63
2021/05/27 03:33:46;;;;;;;5.05;2.17;;;11.60;95.30;;;;;;4894527;29;20041;-62
2021/05/27 03:36:13;;;;;;;5.07;2.40;;;11.60;95.40;;;;;;4891342;29;20801;-62
2021/05/27 03:38:44;;;;;;;5.53;2.28;;;11.60;96.00;;;;;;4890170;29;20604;-62
2021/05/27 03:41:11;;;;;;;6.13;2.35;;;11.60;96.00;;;;;;4893288;29;20044;-63
2021/05/27 03:43:40;;;;;;;3.88;2.13;;;11.60;96.20;;;;;;4896148;29;20056;-63
2021/05/27 03:46:09;;;;;;;4.93;2.55;;;11.60;96.30;;;;;;4891406;29;20052;-63
2021/05/27 03:48:38;;;;;;;6.15;2.75;;;11.70;96.10;;;;;;4887071;29;20052;-62
2021/05/27 03:51:05;;;;;;;11.05;2.83;;;11.70;96.30;;;;;;4891332;29;20036;-63
2021/05/27 03:53:34;;;;;;;8.50;2.55;;;11.70;96.30;;;;;;4888647;29;20037;-63
2021/05/27 03:56:05;;;;;;;5.75;2.40;;;11.60;96.30;;;;;;4885932;29;20040;-62
2021/05/27 04:01:26;;;;;;;5.65;2.47;;;11.70;95.90;;;;;;4889611;29;20515;-62
2021/05/27 04:09:33;;;;;;;5.45;2.00;;;11.90;95.70;;;;;;4900134;29;20032;-62
2021/05/27 04:15:19;;;;;;;4.18;1.83;;;12.00;96.00;;;;;;4902200;29;20060;-63
2021/05/27 04:17:32;;;;;;;3.17;1.75;;;12.00;96.40;;;;;;4902705;29;20036;-62
2021/05/27 04:20:05;;;;;;;6.68;2.30;;;12.20;96.20;;;;;;4899556;29;20052;-62
2021/05/27 04:22:32;;;;;;;4.75;2.35;;;12.20;96.00;;;;;;4884132;29;20064;-62
2021/05/27 04:24:59;;;;;;;23.75;9.00;;;12.30;95.40;;;;;;4892986;29;20183;-63
2021/05/27 04:27:26;;;;;;;21.15;10.95;;;12.40;95.60;;;;;;4882631;29;20492;-63
2021/05/27 04:29:54;;;;;;;10.95;4.88;;;12.40;95.40;;;;;;4890534;29;20040;-63
2021/05/27 04:35:07;;;;;;;5.60;2.47;;;12.60;95.00;;;;;;4893445;29;20032;-62
2021/05/27 04:37:34;;;;;;;8.30;2.83;;;12.70;94.70;;;;;;4893126;29;20048;-62
2021/05/27 04:40:01;;;;;;;5.80;2.40;;;12.90;94.70;;;;;;4889264;29;20854;-63
2021/05/27 04:42:28;;;;;;;5.63;2.30;;;13.00;94.30;;;;;;4889515;29;20105;-62
2021/05/27 04:44:55;;;;;;;5.82;2.15;;;13.10;93.90;;;;;;4894014;29;20114;-62
2021/05/27 04:47:23;;;;;;;5.13;2.15;;;13.10;93.10;;;;;;4894483;29;20044;-63
2021/05/27 04:49:50;;;;;;;4.63;1.65;;;13.10;93.10;;;;;;4893985;29;20053;-62
2021/05/27 04:52:17;;;;;;;5.63;2.08;;;13.10;93.30;;;;;;4900432;29;20048;-62
2021/05/27 04:54:44;;;;;;;6.80;1.95;;;13.20;92.90;;;;;;4889270;29;20060;-62
2021/05/27 04:57:11;;;;;;;6.00;1.75;;;13.20;93.30;;;;;;4891329;29;20100;-63
2021/05/27 04:59:38;;;;;;;5.25;1.75;;;13.30;93.40;;;;;;4876972;29;20053;-63
2021/05/27 05:02:05;;;;;;;5.38;1.70;;;13.40;93.10;;;;;;4893966;29;20105;-62
2021/05/27 05:04:32;;;;;;;6.25;2.00;;;13.50;93.10;;;;;;4892733;29;20068;-62
2021/05/27 05:06:59;;;;;;;5.25;1.75;;;13.60;92.90;;;;;;4893953;29;20073;-62
2021/05/27 05:09:27;;;;;;;8.85;2.50;;;13.70;92.70;;;;;;4895561;29;20045;-62
2021/05/27 05:11:54;;;;;;;7.68;2.25;;;13.70;92.40;;;;;;4895472;29;20555;-62
2021/05/27 05:14:21;;;;;;;5.65;1.98;;;13.70;92.20;;;;;;4893830;29;20102;-62
2021/05/27 05:16:48;;;;;;;5.47;1.65;;;13.70;92.00;;;;;;4893444;29;20381;-62
2021/05/27 05:19:16;;;;;;;8.60;2.10;;;13.70;91.70;;;;;;4900524;29;20047;-62
2021/05/27 05:21:43;;;;;;;4.38;1.90;;;13.90;91.20;;;;;;4893331;29;20108;-62
2021/05/27 05:24:10;;;;;;;9.02;3.08;;;13.90;90.80;;;;;;4889145;29;20800;-62
2021/05/27 05:26:37;;;;;;;6.00;2.10;;;14.00;90.60;;;;;;4898040;29;20053;-62
2021/05/27 05:29:04;;;;;;;9.00;2.33;;;14.00;91.00;;;;;;4893281;29;20045;-62
2021/05/27 05:31:31;;;;;;;5.47;2.15;;;14.10;90.50;;;;;;4894496;29;20497;-62
2021/05/27 05:33:58;;;;;;;3.97;2.00;;;14.20;90.00;;;;;;4896632;29;20048;-62
2021/05/27 05:36:25;;;;;;;4.32;1.95;;;14.30;89.20;;;;;;4897478;29;20103;-62
2021/05/27 05:38:52;;;;;;;4.55;2.22;;;14.40;89.80;;;;;;4895885;29;20071;-62
2021/05/27 05:41:21;;;;;;;6.57;2.15;;;14.40;89.60;;;;;;4897522;29;20127;-62
2021/05/27 05:43:48;;;;;;;4.45;2.13;;;14.50;90.20;;;;;;4895981;29;20047;-62
2021/05/27 05:46:15;;;;;;;4.32;2.15;;;14.50;89.50;;;;;;4897285;29;20485;-62
2021/05/27 05:48:42;;;;;;;8.68;2.80;;;14.60;89.10;;;;;;4896934;29;20032;-62
2021/05/27 05:51:09;;;;;;;9.80;2.55;;;14.60;88.50;;;;;;4895874;29;20044;-62
2021/05/27 05:53:39;;;;;;;6.63;1.92;;;14.70;89.00;;;;;;4892993;29;20045;-62
2021/05/27 05:56:06;;;;;;;13.43;2.65;;;14.70;88.20;;;;;;4891930;29;20060;-62
2021/05/27 05:58:33;;;;;;;12.90;4.50;;;14.80;89.20;;;;;;4896657;29;20092;-62
2021/05/27 06:01:00;;;;;;;4.65;1.83;;;14.90;88.10;;;;;;4898863;29;20045;-62
2021/05/27 06:03:27;;;;;;;9.60;3.08;;;14.90;83.20;;;;;;4900079;29;20088;-62
2021/05/27 06:06:13;;;;;;;6.88;2.40;;;15.00;84.30;;;;;;4896311;29;20616;-62
2021/05/27 06:08:40;;;;;;;3.80;1.38;;;15.10;84.40;;;;;;4902705;29;20469;-62
2021/05/27 06:11:07;;;;;;;2.85;0.55;;;15.10;81.60;;;;;;4894436;29;20392;-62
2021/05/27 06:13:34;;;;;;;2.60;0.80;;;15.10;76.80;;;;;;4899581;29;20060;-62
2021/05/27 06:16:02;;;;;;;2.22;0.68;;;15.20;77.80;;;;;;4898475;29;20056;-62
2021/05/27 06:18:29;;;;;;;8.27;1.15;;;15.30;80.40;;;;;;4904499;29;20045;-62
2021/05/27 06:21:19;;;;;;;4.18;0.68;;;15.30;79.50;;;;;;4893260;29;20393;-62
2021/05/27 06:23:47;;;;;;;4.28;1.50;;;15.40;78.70;;;;;;4897141;29;20103;-62
2021/05/27 06:26:14;;;;;;;4.70;0.82;;;15.50;78.90;;;;;;4897790;29;20108;-62
2021/05/27 06:28:41;;;;;;;4.15;1.10;;;15.50;80.70;;;;;;4901247;29;20055;-62
2021/05/27 06:31:08;;;;;;;2.45;0.50;;;15.60;81.80;;;;;;4900605;29;20059;-62
2021/05/27 06:33:36;;;;;;;2.55;0.20;;;15.60;73.70;;;;;;4901411;29;20040;-62
2021/05/27 06:36:05;;;;;;;4.15;0.45;;;15.70;71.70;;;;;;4909374;29;20048;-62
2021/05/27 06:38:33;;;;;;;1.42;0.40;;;15.80;72.90;;;;;;4894681;29;20053;-62
2021/05/27 06:41:00;;;;;;;2.53;0.20;;;15.80;74.10;;;;;;4892989;29;20080;-62
2021/05/27 06:43:28;;;;;;;3.28;0.20;;;15.90;72.40;;;;;;4905030;29;20049;-62
2021/05/27 06:45:56;;;;;;;2.65;0.25;;;16.00;69.80;;;;;;4896943;29;20068;-63
2021/05/27 06:48:23;;;;;;;2.15;0.40;;;16.00;71.40;;;;;;4904642;29;20115;-62
2021/05/27 06:50:51;;;;;;;2.00;0.50;;;16.00;72.10;;;;;;4896520;29;20045;-62
2021/05/27 06:53:19;;;;;;;2.47;0.30;;;16.00;71.80;;;;;;4890869;29;20048;-62
2021/05/27 06:55:48;;;;;;;5.40;0.22;;;16.10;68.00;;;;;;4890653;29;20391;-63
2021/05/27 06:58:17;;;;;;;3.47;0.40;;;16.10;69.10;;;;;;4902181;29;20040;-62
2021/05/27 07:00:44;;;;;;;5.30;0.38;;;16.20;69.70;;;;;;4894743;29;20111;-62
2021/05/27 07:03:12;;;;;;;1.75;0.30;;;16.30;72.20;;;;;;4894066;29;20063;-62
2021/05/27 07:05:39;;;;;;;4.20;0.85;;;16.40;71.80;;;;;;4895318;29;20108;-62
2021/05/27 07:08:07;;;;;;;2.67;0.20;;;16.40;71.10;;;;;;4893566;29;20052;-62
2021/05/27 07:10:35;;;;;;;3.03;0.20;;;16.50;71.50;;;;;;4902597;29;20123;-62
2021/05/27 07:13:07;;;;;;;4.75;0.50;;;16.50;70.20;;;;;;4893606;29;20148;-62
2021/05/27 07:15:35;;;;;;;4.88;0.52;;;16.50;72.40;;;;;;4902629;29;20044;-62
2021/05/27 07:18:03;;;;;;;6.70;0.50;;;16.60;72.00;;;;;;4874068;29;20049;-62
2021/05/27 07:20:30;;;;;;;4.15;0.50;;;16.50;72.00;;;;;;4886772;29;20875;-62
2021/05/27 07:22:57;;;;;;;3.05;0.60;;;16.50;73.50;;;;;;4890358;29;20060;-62
2021/05/27 07:25:25;;;;;;;3.17;0.47;;;16.60;73.60;;;;;;4888937;29;20151;-62
2021/05/27 07:27:54;;;;;;;3.10;0.38;;;16.70;74.00;;;;;;4891327;29;20071;-62
2021/05/27 07:30:22;;;;;;;2.33;0.45;;;16.90;71.50;;;;;;4888104;29;20056;-64
2021/05/27 07:32:49;;;;;;;3.33;0.30;;;17.00;71.50;;;;;;4887048;29;20108;-64
2021/05/27 07:35:16;;;;;;;3.25;0.30;;;17.20;70.60;;;;;;4888580;29;20104;-64
2021/05/27 07:37:44;;;;;;;2.70;0.20;;;17.20;71.70;;;;;;4894431;29;20074;-64
2021/05/27 07:40:12;;;;;;;1.38;0.22;;;17.20;72.40;;;;;;4893656;29;20060;-64
2021/05/27 07:42:39;;;;;;;3.28;0.10;;;17.20;71.90;;;;;;4889840;29;20048;-64
2021/05/27 07:45:07;;;;;;;2.83;0.20;;;17.20;72.00;;;;;;4891982;29;20048;-65
2021/05/27 07:47:34;;;;;;;2.83;0.30;;;17.30;68.90;;;;;;4879943;29;20051;-65
2021/05/27 07:50:04;;;;;;;1.25;0.20;;;17.30;69.30;;;;;;4877879;29;20461;-64
2021/05/27 07:52:33;;;;;;;4.93;0.43;;;17.30;71.10;;;;;;4871510;29;20060;-63
2021/05/27 07:55:01;;;;;;;2.53;0.75;;;17.40;69.60;;;;;;4889981;29;20082;-62
2021/05/27 07:57:33;;;;;;;2.28;0.20;;;17.30;69.20;;;;;;4890272;29;20036;-62
2021/05/27 08:00:00;;;;;;;3.30;0.80;;;17.40;70.10;;;;;;4895438;29;20171;-62
2021/05/27 08:02:28;;;;;;;1.58;0.25;;;17.40;69.30;;;;;;4890138;29;20050;-62
2021/05/27 08:04:55;;;;;;;3.22;0.30;;;17.40;70.00;;;;;;4891194;29;20131;-62
2021/05/27 08:07:22;;;;;;;0.52;0.15;;;17.50;70.30;;;;;;4892227;29;20053;-63
2021/05/27 08:09:49;;;;;;;1.15;0.13;;;17.60;71.20;;;;;;4895137;29;20496;-63
2021/05/27 08:12:16;;;;;;;1.38;0.20;;;17.70;70.00;;;;;;4890602;29;20158;-63
2021/05/27 08:14:45;;;;;;;2.92;0.35;;;17.70;69.30;;;;;;4892317;29;20072;-63
2021/05/27 08:17:12;;;;;;;1.58;0.50;;;17.90;69.90;;;;;;4886583;29;22305;-63
2021/05/27 08:19:39;;;;;;;1.85;0.30;;;17.90;70.50;;;;;;4890649;29;20055;-63
2021/05/27 08:22:08;;;;;;;2.08;0.22;;;17.90;69.20;;;;;;4891788;29;20084;-63
2021/05/27 08:24:38;;;;;;;4.65;0.55;;;17.80;70.10;;;;;;4889466;29;20111;-63
2021/05/27 08:27:05;;;;;;;1.75;0.20;;;17.90;70.10;;;;;;4892432;29;20044;-63
2021/05/27 08:29:32;;;;;;;4.68;0.50;;;17.90;68.50;;;;;;4897310;29;20056;-63
2021/05/27 08:31:59;;;;;;;3.13;0.45;;;17.90;69.10;;;;;;4892997;29;20068;-63
2021/05/27 08:34:26;;;;;;;1.50;0.30;;;17.80;71.20;;;;;;4888969;29;20544;-62
2021/05/27 08:36:53;;;;;;;0.93;0.30;;;17.90;70.70;;;;;;4881199;29;20057;-63
2021/05/27 08:39:20;;;;;;;8.07;3.10;;;18.00;70.60;;;;;;4884060;29;20052;-64
2021/05/27 08:41:47;;;;;;;4.35;1.27;;;18.00;69.80;;;;;;4892477;29;20044;-64
2021/05/27 08:44:14;;;;;;;2.72;1.40;;;18.10;69.20;;;;;;4891094;29;20049;-62
2021/05/27 08:46:42;;;;;;;2.33;0.50;;;18.10;70.00;;;;;;4888964;29;20136;-63
2021/05/27 08:49:10;;;;;;;2.97;0.70;;;18.10;69.30;;;;;;4878879;29;20053;-63
2021/05/27 08:51:37;;;;;;;2.13;0.70;;;18.20;68.70;;;;;;4889050;29;20844;-63
2021/05/27 08:54:05;;;;;;;49.40;30.85;;;18.10;69.90;;;;;;4888655;29;20053;-62
2021/05/27 08:56:33;;;;;;;9.30;7.00;;;18.20;67.90;;;;;;4877602;29;20471;-62
2021/05/27 08:59:00;;;;;;;4.60;3.75;;;18.30;69.60;;;;;;4891213;29;20049;-62
2021/05/27 09:01:27;;;;;;;2.45;0.65;;;18.40;71.40;;;;;;4894116;29;20064;-63
2021/05/27 09:03:54;;;;;;;9.32;6.03;;;18.50;69.50;;;;;;4896215;29;20135;-63
2021/05/27 09:06:23;;;;;;;2.67;1.02;;;18.50;70.70;;;;;;4899616;29;20048;-63
2021/05/27 09:09:07;;;;;;;3.38;0.85;;;18.50;72.90;;;;;;4899878;29;20044;-63
2021/05/27 09:11:38;;;;;;;9.32;6.30;;;18.50;73.10;;;;;;4893657;29;20044;-63
2021/05/27 09:14:06;;;;;;;2.50;0.60;;;18.60;71.10;;;;;;4890711;29;20040;-63
2021/05/27 09:16:33;;;;;;;4.18;1.83;;;18.80;67.80;;;;;;4892973;29;20045;-63
2021/05/27 09:19:16;;;;;;;12.10;9.13;;;18.80;68.10;;;;;;4892831;29;20048;-63
2021/05/27 09:21:43;;;;;;;;;;;19.00;65.60;;;;;;4895043;29;20048;-63
2021/05/27 09:24:10;;;;;;;4.88;1.08;;;19.10;66.70;;;;;;4894178;29;19974;-63
2021/05/27 09:26:52;;;;;;;1.98;0.60;;;19.10;66.80;;;;;;4890328;29;20052;-62
2021/05/27 09:29:20;;;;;;;1.88;0.52;;;19.00;65.70;;;;;;4883753;29;20477;-63
2021/05/27 09:32:03;;;;;;;2.80;0.45;;;19.00;66.20;;;;;;4894190;29;20036;-63
2021/05/27 09:34:46;;;;;;;1.08;0.25;;;19.00;64.70;;;;;;4893137;29;20044;-62
2021/05/27 09:37:29;;;;;;;6.93;3.72;;;19.00;66.70;;;;;;4891006;29;20060;-63
2021/05/27 09:39:58;;;;;;;1.38;0.68;;;19.20;64.20;;;;;;4892810;29;20616;-63
2021/05/27 09:42:26;;;;;;;6.15;3.75;;;19.30;62.20;;;;;;4890712;29;20099;-63
2021/05/27 09:44:54;;;;;;;6.05;2.75;;;19.40;62.50;;;;;;4889040;29;20144;-63
2021/05/27 09:47:32;;;;;;;2.22;1.05;;;19.70;61.70;;;;;;4893387;29;20813;-63
2021/05/27 09:50:03;;;;;;;2.13;0.30;;;19.80;59.90;;;;;;4891799;29;20052;-63
2021/05/27 09:52:41;;;;;;;1.70;0.65;;;19.70;59.70;;;;;;4893616;29;20048;-63
2021/05/27 09:55:11;;;;;;;1.00;0.25;;;19.70;62.20;;;;;;4892851;29;20492;-63
2021/05/27 09:57:41;;;;;;;1.90;0.20;;;19.70;60.80;;;;;;4891040;29;20057;-62
2021/05/27 10:00:28;;;;;;;2.78;0.38;;;19.80;60.90;;;;;;4891625;29;20072;-62
2021/05/27 10:02:56;;;;;;;3.33;0.50;;;19.70;61.40;;;;;;4891811;29;20036;-63
2021/05/27 10:05:23;;;;;;;2.10;0.30;;;19.70;62.10;;;;;;4893049;29;20096;-63
2021/05/27 10:07:52;;;;;;;4.10;0.30;;;19.80;59.10;;;;;;4895201;29;20044;-63
2021/05/27 10:10:41;;;;;;;2.28;0.30;;;20.00;58.70;;;;;;4897270;29;20048;-66
2021/05/27 10:13:12;;;;;;;3.20;0.47;;;19.80;61.30;;;;;;4890915;29;20073;-63
2021/05/27 10:15:43;;;;;;;6.65;1.63;;;19.90;60.10;;;;;;4894996;29;20040;-63
2021/05/27 10:18:15;;;;;;;3.38;0.98;;;20.00;58.90;;;;;;4893403;29;20625;-63
2021/05/27 10:20:43;;;;;;;60.75;36.63;;;20.00;59.70;;;;;;4880853;29;20064;-62
2021/05/27 10:23:10;;;;;;;30.17;17.23;;;20.00;59.10;;;;;;4893861;29;20052;-62
2021/05/27 10:25:37;;;;;;;38.38;23.52;;;20.10;59.90;;;;;;4898032;29;20063;-62
2021/05/27 10:28:10;;;;;;;1.73;0.60;;;20.30;59.70;;;;;;4897778;29;20105;-62
2021/05/27 10:30:41;;;;;;;;;;;20.40;60.00;;;;;;4896477;29;20409;-62
2021/05/27 10:33:16;;;;;;;14.75;6.70;;;20.50;57.60;;;;;;4895000;29;19924;-62
2021/05/27 10:35:51;;;;;;;2.30;1.00;;;20.60;56.70;;;;;;4901218;29;20416;-62
2021/05/27 10:38:42;;;;;;;4.63;0.68;;;20.70;59.20;;;;;;4897602;29;20530;-62
2021/05/27 10:41:28;;;;;;;2.45;0.43;;;20.70;58.00;;;;;;4884577;29;20053;-63
2021/05/27 10:43:59;;;;;;;2.13;0.80;;;20.80;56.90;;;;;;4893452;29;20093;-63
2021/05/27 10:46:30;;;;;;;6.53;2.90;;;20.80;58.30;;;;;;4879478;29;20500;-63
2021/05/27 10:48:58;;;;;;;5.82;3.08;;;20.90;58.70;;;;;;4894212;29;20063;-62
2021/05/27 10:51:44;;;;;;;5.78;1.33;;;20.90;58.10;;;;;;4892301;29;20040;-63
2021/05/27 10:54:16;;;;;;;2.85;1.05;;;20.90;57.60;;;;;;4897320;29;20037;-62
2021/05/27 10:56:46;;;;;;;4.72;0.68;;;20.90;58.40;;;;;;4896541;29;20048;-63
2021/05/27 10:59:18;;;;;;;3.25;0.60;;;20.90;58.90;;;;;;4889775;29;20051;-63
2021/05/27 11:01:44;;;;;;;3.03;0.50;;;20.90;59.30;;;;;;4883266;29;20048;-63
2021/05/27 11:04:29;;;;;;;1.40;0.50;;;21.20;58.60;;;;;;4899111;29;20048;-63
2021/05/27 11:07:18;;;;;;;2.65;0.85;;;21.30;58.00;;;;;;4903074;29;20044;-63
2021/05/27 11:09:51;;;;;;;1.15;0.55;;;21.30;59.00;;;;;;4889740;29;20048;-63
2021/05/27 11:12:24;;;;;;;5.13;0.60;;;21.20;58.90;;;;;;4900114;29;20033;-63
2021/05/27 11:14:54;;;;;;;1.45;0.40;;;21.30;57.40;;;;;;4905252;29;20108;-64
2021/05/27 11:17:26;;;;;;;2.53;0.73;;;21.40;59.80;;;;;;4897886;29;20037;-65
2021/05/27 11:20:22;;;;;;;18.15;2.05;;;21.50;57.80;;;;;;4897720;29;20243;-65
2021/05/27 11:22:58;;;;;;;1.25;0.30;;;21.50;58.30;;;;;;4887996;29;20067;-64
2021/05/27 11:25:29;;;;;;;2.60;0.38;;;21.50;57.60;;;;;;4877066;29;20743;-64
2021/05/27 11:27:59;;;;;;;2.95;0.45;;;21.60;58.10;;;;;;4897803;29;20041;-65
2021/05/27 11:30:28;;;;;;;2.78;0.45;;;21.80;59.10;;;;;;4893560;29;20041;-65
2021/05/27 11:33:08;;;;;;;2.78;0.85;;;22.00;56.20;;;;;;4903263;29;20550;-65
2021/05/27 11:35:39;;;;;;;2.08;0.35;;;22.00;55.60;;;;;;4891897;29;20579;-65
2021/05/27 11:38:32;;;;;;;5.05;0.65;;;22.00;59.20;;;;;;4886982;29;20708;-65
2021/05/27 11:41:06;;;;;;;2.10;0.30;;;22.00;57.00;;;;;;4897830;29;20045;-65
2021/05/27 11:43:40;;;;;;;2.75;0.50;;;22.00;57.30;;;;;;4900791;29;20055;-65
2021/05/27 11:46:16;;;;;;;5.63;0.68;;;22.00;57.10;;;;;;4879477;29;20059;-64
2021/05/27 11:48:55;;;;;;;2.90;0.75;;;22.10;56.10;;;;;;4887296;29;20052;-64
2021/05/27 11:51:29;;;;;;;2.78;0.52;;;22.40;55.80;;;;;;4891525;29;20056;-64
2021/05/27 11:54:00;;;;;;;0.82;0.30;;;22.90;55.70;;;;;;4877133;29;20187;-64
2021/05/27 11:56:28;;;;;;;2.90;0.82;;;23.50;55.10;;;;;;4901353;29;20506;-64
2021/05/27 11:58:56;;;;;;;1.85;0.60;;;24.20;52.40;;;;;;4895976;29;20053;-64
2021/05/27 12:01:27;;;;;;;1.23;0.30;;;25.00;50.10;;;;;;4896090;29;20500;-64
2021/05/27 12:04:04;;;;;;;2.60;0.60;;;25.90;49.30;;;;;;4891899;29;20048;-64
2021/05/27 12:06:55;;;;;;;3.22;0.40;;;27.10;47.40;;;;;;4888860;29;20055;-64
2021/05/27 12:09:27;;;;;;;2.60;0.63;;;28.40;45.10;;;;;;4889766;29;20041;-64
2021/05/27 12:11:56;;;;;;;2.20;0.40;;;29.50;42.90;;;;;;4882726;29;20500;-64
2021/05/27 12:14:23;;;;;;;3.33;0.55;;;30.30;42.60;;;;;;4896771;29;20059;-64
2021/05/27 12:16:54;;;;;;;1.88;0.30;;;31.10;41.90;;;;;;4893232;29;20040;-64
2021/05/27 12:19:21;;;;;;;1.42;0.50;;;31.70;40.20;;;;;;4869236;29;20048;-64
2021/05/27 12:21:57;;;;;;;1.80;0.20;;;32.40;38.40;;;;;;4893795;29;20045;-64
2021/05/27 12:24:29;;;;;;;1.17;0.30;;;33.10;35.00;;;;;;4895956;29;20041;-64
2021/05/27 12:26:56;;;;;;;;;;;32.80;35.70;;;;;;4894828;29;20044;-64
2021/05/27 12:29:23;;;;;;;4.80;0.30;;;32.70;36.60;;;;;;4893234;29;19950;-64
2021/05/27 12:31:51;;;;;;;1.27;0.50;;;32.90;36.50;;;;;;4907620;29;20045;-64
2021/05/27 12:34:20;;;;;;;23.42;2.55;;;32.90;37.10;;;;;;4895803;29;20060;-64
2021/05/27 12:37:01;;;;;;;7.13;1.30;;;33.10;37.90;;;;;;4897684;29;20088;-64
2021/05/27 12:39:39;;;;;;;0.55;0.20;;;33.20;39.00;;;;;;4897250;29;20055;-64
2021/05/27 12:42:08;;;;;;;7.18;0.30;;;33.50;38.50;;;;;;4900352;29;20040;-64
2021/05/27 12:44:44;;;;;;;3.90;0.50;;;33.80;37.70;;;;;;4896850;29;20092;-64
2021/05/27 12:47:20;;;;;;;3.10;0.20;;;34.20;36.40;;;;;;4902549;29;20052;-65
2021/05/27 12:49:49;;;;;;;3.17;0.17;;;34.50;36.10;;;;;;4910718;29;20048;-65
2021/05/27 12:52:41;;;;;;;0.93;0.10;;;34.80;34.80;;;;;;4894479;29;20052;-64
2021/05/27 12:55:10;;;;;;;2.03;0.15;;;34.90;34.80;;;;;;4907094;29;20044;-64
2021/05/27 12:58:03;;;;;;;4.82;0.10;;;35.10;35.10;;;;;;4897277;29;20056;-64
2021/05/27 13:00:48;;;;;;;1.10;0.20;;;35.10;35.50;;;;;;4895948;29;20072;-64
2021/05/27 13:03:17;;;;;;;0.20;0.10;;;35.10;33.90;;;;;;4873632;29;20048;-65
2021/05/27 13:05:44;;;;;;;2.97;0.30;;;35.10;33.50;;;;;;4891937;29;20052;-65
2021/05/27 13:08:11;;;;;;;5.45;0.10;;;35.40;34.60;;;;;;4899383;29;20051;-64
2021/05/27 13:10:40;;;;;;;2.33;0.22;;;35.20;34.40;;;;;;4897590;29;20691;-64
2021/05/27 13:13:08;;;;;;;2.88;0.20;;;35.20;35.20;;;;;;4896855;29;20366;-64
2021/05/27 13:15:46;;;;;;;1.30;0.10;;;34.90;34.30;;;;;;4897393;29;20445;-65
2021/05/27 13:30:00;;;;;;;7.63;0.57;;;30.80;37.60;;;;;;4913528;29;20048;-64